sensor_id;sensor_type;location;lat;lon;timestamp;pressure;altitude;pressure_sealevel;temperature;humidity
5753;BME280;2901;42.140;24.760;2023-10-19T00:00:40;99654.19;;;11.12;100.00
5753;BME280;2901;42.140;24.760;2023-10-19T00:03:09;99672.28;;;11.17;100.00
5753;BME280;2901;42.140;24.760;2023-10-19T00:05:35;99668.00;;;11.11;100.00
5753;BME280;2901;42.140;24.760;2023-10-19T00:08:02;99672.34;;;11.09;100.00
5753;BME280;2901;42.140;24.760;2023-10-19T00:10:44;99659.38;;;11.12;100.00
5753;BME280;2901;42.140;24.760;2023-10-19T00:13:13;99654.16;;;11.14;100.00
5753;BME280;2901;42.140;24.760;2023-10-19T00:15:39;99656.75;;;11.15;100.00
5753;BME280;2901;42.140;24.760;2023-10-19T00:18:16;99648.13;;;11.15;100.00
5753;BME280;2901;42.140;24.760;2023-10-19T00:20:43;99644.63;;;11.17;100.00
5753;BME280;2901;42.140;24.760;2023-10-19T00:23:23;99635.16;;;11.15;100.00
5753;BME280;2901;42.140;24.760;2023-10-19T00:25:59;99638.56;;;11.20;100.00
5753;BME280;2901;42.140;24.760;2023-10-19T00:28:26;99640.28;;;11.22;100.00
5753;BME280;2901;42.140;24.760;2023-10-19T00:30:54;99636.78;;;11.26;100.00
5753;BME280;2901;42.140;24.760;2023-10-19T00:33:28;99626.44;;;11.23;100.00
5753;BME280;2901;42.140;24.760;2023-10-19T00:35:54;99616.06;;;11.23;100.00
5753;BME280;2901;42.140;24.760;2023-10-19T00:38:25;99624.66;;;11.30;100.00
5753;BME280;2901;42.140;24.760;2023-10-19T00:41:04;99606.53;;;11.28;100.00
5753;BME280;2901;42.140;24.760;2023-10-19T00:43:33;99608.31;;;11.25;100.00
5753;BME280;2901;42.140;24.760;2023-10-19T00:46:01;99616.06;;;11.29;100.00
5753;BME280;2901;42.140;24.760;2023-10-19T00:48:29;99616.03;;;11.32;100.00
5753;BME280;2901;42.140;24.760;2023-10-19T00:50:55;99615.13;;;11.35;100.00
5753;BME280;2901;42.140;24.760;2023-10-19T00:53:46;99615.97;;;11.37;100.00
5753;BME280;2901;42.140;24.760;2023-10-19T00:56:13;99609.09;;;11.36;100.00
5753;BME280;2901;42.140;24.760;2023-10-19T00:58:43;99614.25;;;11.37;100.00
5753;BME280;2901;42.140;24.760;2023-10-19T01:01:13;99610.88;;;11.29;100.00
5753;BME280;2901;42.140;24.760;2023-10-19T01:03:40;99609.06;;;11.37;100.00
5753;BME280;2901;42.140;24.760;2023-10-19T01:06:05;99600.38;;;11.40;100.00
5753;BME280;2901;42.140;24.760;2023-10-19T01:08:36;99605.56;;;11.41;100.00
5753;BME280;2901;42.140;24.760;2023-10-19T01:11:11;99601.19;;;11.46;100.00
5753;BME280;2901;42.140;24.760;2023-10-19T01:13:41;99595.16;;;11.46;100.00
5753;BME280;2901;42.140;24.760;2023-10-19T01:16:16;99596.00;;;11.46;100.00
5753;BME280;2901;42.140;24.760;2023-10-19T01:18:49;99593.41;;;11.50;100.00
5753;BME280;2901;42.140;24.760;2023-10-19T01:21:22;99596.00;;;11.46;100.00
5753;BME280;2901;42.140;24.760;2023-10-19T01:23:50;99593.41;;;11.46;100.00
5753;BME280;2901;42.140;24.760;2023-10-19T01:26:16;99588.25;;;11.48;100.00
5753;BME280;2901;42.140;24.760;2023-10-19T01:28:47;99575.31;;;11.40;100.00
5753;BME280;2901;42.140;24.760;2023-10-19T01:31:21;99587.50;;;11.32;100.00
5753;BME280;2901;42.140;24.760;2023-10-19T01:33:52;99580.59;;;11.30;100.00
5753;BME280;2901;42.140;24.760;2023-10-19T01:36:22;99580.59;;;11.30;100.00
5753;BME280;2901;42.140;24.760;2023-10-19T01:38:48;99588.34;;;11.33;100.00
5753;BME280;2901;42.140;24.760;2023-10-19T01:41:14;99583.22;;;11.28;100.00
5753;BME280;2901;42.140;24.760;2023-10-19T01:43:44;99584.91;;;11.35;100.00
5753;BME280;2901;42.140;24.760;2023-10-19T01:46:13;99576.19;;;11.39;100.00
5753;BME280;2901;42.140;24.760;2023-10-19T01:48:48;99583.06;;;11.43;100.00
5753;BME280;2901;42.140;24.760;2023-10-19T01:51:15;99577.91;;;11.40;100.00
5753;BME280;2901;42.140;24.760;2023-10-19T01:53:41;99590.00;;;11.43;100.00
5753;BME280;2901;42.140;24.760;2023-10-19T01:56:11;99572.78;;;11.33;100.00
5753;BME280;2901;42.140;24.760;2023-10-19T01:58:38;99592.59;;;11.43;100.00
5753;BME280;2901;42.140;24.760;2023-10-19T02:01:04;99588.28;;;11.42;100.00
5753;BME280;2901;42.140;24.760;2023-10-19T02:03:45;99597.78;;;11.43;100.00
5753;BME280;2901;42.140;24.760;2023-10-19T02:06:13;99592.59;;;11.43;100.00
5753;BME280;2901;42.140;24.760;2023-10-19T02:08:49;99590.88;;;11.40;100.00
5753;BME280;2901;42.140;24.760;2023-10-19T02:11:22;99591.72;;;11.44;100.00
5753;BME280;2901;42.140;24.760;2023-10-19T02:13:50;99589.97;;;11.46;100.00
5753;BME280;2901;42.140;24.760;2023-10-19T02:16:19;99579.63;;;11.44;100.00
5753;BME280;2901;42.140;24.760;2023-10-19T02:18:49;99584.78;;;11.48;100.00
5753;BME280;2901;42.140;24.760;2023-10-19T02:21:16;99583.91;;;11.49;100.00
5753;BME280;2901;42.140;24.760;2023-10-19T02:23:48;99595.97;;;11.54;100.00
5753;BME280;2901;42.140;24.760;2023-10-19T02:26:19;99587.28;;;11.58;100.00
5753;BME280;2901;42.140;24.760;2023-10-19T02:28:56;99596.75;;;11.62;100.00
5753;BME280;2901;42.140;24.760;2023-10-19T02:31:22;99599.31;;;11.64;100.00
5753;BME280;2901;42.140;24.760;2023-10-19T02:33:50;99603.66;;;11.65;100.00
5753;BME280;2901;42.140;24.760;2023-10-19T02:36:28;99603.66;;;11.65;100.00
5753;BME280;2901;42.140;24.760;2023-10-19T02:38:59;99603.66;;;11.65;100.00
5753;BME280;2901;42.140;24.760;2023-10-19T02:41:26;99606.22;;;11.66;100.00
5753;BME280;2901;42.140;24.760;2023-10-19T02:43:54;99600.16;;;11.66;100.00
5753;BME280;2901;42.140;24.760;2023-10-19T02:46:38;99611.38;;;11.69;100.00
5753;BME280;2901;42.140;24.760;2023-10-19T02:49:05;99608.81;;;11.71;100.00
5753;BME280;2901;42.140;24.760;2023-10-19T02:51:38;99594.16;;;11.62;100.00
5753;BME280;2901;42.140;24.760;2023-10-19T02:54:06;99602.75;;;11.72;100.00
5753;BME280;2901;42.140;24.760;2023-10-19T02:56:32;99613.03;;;11.79;100.00
5753;BME280;2901;42.140;24.760;2023-10-19T02:59:00;99605.22;;;11.82;100.00
5753;BME280;2901;42.140;24.760;2023-10-19T03:01:33;99601.78;;;11.82;100.00
5753;BME280;2901;42.140;24.760;2023-10-19T03:04:02;99608.69;;;11.83;100.00
5753;BME280;2901;42.140;24.760;2023-10-19T03:06:30;99607.78;;;11.87;100.00
5753;BME280;2901;42.140;24.760;2023-10-19T03:08:59;99603.50;;;11.83;100.00
5753;BME280;2901;42.140;24.760;2023-10-19T03:11:30;99603.47;;;11.86;100.00
5753;BME280;2901;42.140;24.760;2023-10-19T03:13:57;99611.28;;;11.84;100.00
5753;BME280;2901;42.140;24.760;2023-10-19T03:16:23;99615.69;;;11.73;100.00
5753;BME280;2901;42.140;24.760;2023-10-19T03:18:49;99616.66;;;11.60;100.00
5753;BME280;2901;42.140;24.760;2023-10-19T03:21:16;99609.75;;;11.58;100.00
5753;BME280;2901;42.140;24.760;2023-10-19T03:23:41;99614.97;;;11.55;100.00
5753;BME280;2901;42.140;24.760;2023-10-19T03:26:08;99615.88;;;11.51;100.00
5753;BME280;2901;42.140;24.760;2023-10-19T03:29:05;99617.69;;;11.42;100.00
5753;BME280;2901;42.140;24.760;2023-10-19T03:31:37;99613.38;;;11.38;100.00
5753;BME280;2901;42.140;24.760;2023-10-19T03:34:09;99609.91;;;11.41;100.00
5753;BME280;2901;42.140;24.760;2023-10-19T03:36:35;99617.72;;;11.35;100.00
5753;BME280;2901;42.140;24.760;2023-10-19T03:39:01;99603.97;;;11.24;100.00
5753;BME280;2901;42.140;24.760;2023-10-19T03:41:37;99606.69;;;11.09;100.00
5753;BME280;2901;42.140;24.760;2023-10-19T03:44:04;99610.19;;;11.02;100.00
5753;BME280;2901;42.140;24.760;2023-10-19T03:46:30;99603.34;;;10.91;100.00
5753;BME280;2901;42.140;24.760;2023-10-19T03:48:57;99601.69;;;10.80;100.00
5753;BME280;2901;42.140;24.760;2023-10-19T03:51:39;99595.63;;;10.81;100.00
5753;BME280;2901;42.140;24.760;2023-10-19T03:54:08;99592.19;;;10.82;100.00
5753;BME280;2901;42.140;24.760;2023-10-19T03:56:45;99594.75;;;10.85;100.00
5753;BME280;2901;42.140;24.760;2023-10-19T03:59:13;99589.56;;;10.83;100.00
5753;BME280;2901;42.140;24.760;2023-10-19T04:01:38;99587.00;;;10.82;100.00
5753;BME280;2901;42.140;24.760;2023-10-19T04:04:04;99584.41;;;10.80;100.00
5753;BME280;2901;42.140;24.760;2023-10-19T04:06:30;99580.16;;;10.69;100.00
5753;BME280;2901;42.140;24.760;2023-10-19T04:08:55;99584.53;;;10.62;100.00
5753;BME280;2901;42.140;24.760;2023-10-19T04:11:21;99603.56;;;10.52;100.00
5753;BME280;2901;42.140;24.760;2023-10-19T04:13:58;99599.25;;;10.53;100.00
5753;BME280;2901;42.140;24.760;2023-10-19T04:16:28;99594.06;;;10.53;100.00
5753;BME280;2901;42.140;24.760;2023-10-19T04:18:54;99594.94;;;10.49;100.00
5753;BME280;2901;42.140;24.760;2023-10-19T04:21:19;99604.47;;;10.44;100.00
5753;BME280;2901;42.140;24.760;2023-10-19T04:23:45;99606.22;;;10.35;100.00
5753;BME280;2901;42.140;24.760;2023-10-19T04:26:12;99592.47;;;10.21;100.00
5753;BME280;2901;42.140;24.760;2023-10-19T04:28:40;99597.66;;;10.05;100.00
5753;BME280;2901;42.140;24.760;2023-10-19T04:31:16;99584.75;;;9.93;100.00
5753;BME280;2901;42.140;24.760;2023-10-19T04:33:42;99591.66;;;9.94;100.00
5753;BME280;2901;42.140;24.760;2023-10-19T04:36:11;99596.81;;;9.95;100.00
5753;BME280;2901;42.140;24.760;2023-10-19T04:38:37;99595.09;;;9.96;100.00
5753;BME280;2901;42.140;24.760;2023-10-19T04:41:11;99586.47;;;9.95;100.00
5753;BME280;2901;42.140;24.760;2023-10-19T04:43:38;99588.22;;;9.93;100.00
5753;BME280;2901;42.140;24.760;2023-10-19T04:46:09;99583.91;;;9.90;100.00
5753;BME280;2901;42.140;24.760;2023-10-19T04:48:41;99595.09;;;9.93;100.00
5753;BME280;2901;42.140;24.760;2023-10-19T04:51:08;99592.53;;;9.85;100.00
5753;BME280;2901;42.140;24.760;2023-10-19T04:53:34;99590.84;;;9.81;100.00
5753;BME280;2901;42.140;24.760;2023-10-19T04:56:00;99604.63;;;9.80;100.00
5753;BME280;2901;42.140;24.760;2023-10-19T04:58:29;99608.06;;;9.79;100.00
5753;BME280;2901;42.140;24.760;2023-10-19T05:00:55;99606.34;;;9.72;100.00
5753;BME280;2901;42.140;24.760;2023-10-19T05:03:20;99608.94;;;9.73;100.00
5753;BME280;2901;42.140;24.760;2023-10-19T05:05:46;99608.09;;;9.61;100.00
5753;BME280;2901;42.140;24.760;2023-10-19T05:08:12;99610.69;;;9.56;100.00
5753;BME280;2901;42.140;24.760;2023-10-19T05:10:37;99602.94;;;9.55;100.00
5753;BME280;2901;42.140;24.760;2023-10-19T05:13:03;99609.81;;;9.57;100.00
5753;BME280;2901;42.140;24.760;2023-10-19T05:15:29;99614.97;;;9.56;100.00
5753;BME280;2901;42.140;24.760;2023-10-19T05:17:55;99600.34;;;9.58;100.00
5753;BME280;2901;42.140;24.760;2023-10-19T05:20:20;99616.69;;;9.69;100.00
5753;BME280;2901;42.140;24.760;2023-10-19T05:22:46;99612.38;;;9.80;100.00
5753;BME280;2901;42.140;24.760;2023-10-19T05:25:12;99602.88;;;9.89;100.00
5753;BME280;2901;42.140;24.760;2023-10-19T05:27:38;99607.16;;;10.00;100.00
5753;BME280;2901;42.140;24.760;2023-10-19T05:30:04;99608.88;;;10.10;100.00
5753;BME280;2901;42.140;24.760;2023-10-19T05:32:30;99617.47;;;10.25;100.00
5753;BME280;2901;42.140;24.760;2023-10-19T05:34:56;99608.81;;;10.35;100.00
5753;BME280;2901;42.140;24.760;2023-10-19T05:37:22;99610.50;;;10.46;100.00
5753;BME280;2901;42.140;24.760;2023-10-19T05:39:48;99610.44;;;10.58;100.00
5753;BME280;2901;42.140;24.760;2023-10-19T05:42:17;99613.81;;;10.70;100.00
5753;BME280;2901;42.140;24.760;2023-10-19T05:44:42;99613.78;;;10.78;100.00
5753;BME280;2901;42.140;24.760;2023-10-19T05:47:08;99615.47;;;10.85;100.00
5753;BME280;2901;42.140;24.760;2023-10-19T05:49:33;99612.81;;;10.94;100.00
5753;BME280;2901;42.140;24.760;2023-10-19T05:51:59;99614.50;;;11.03;100.00
5753;BME280;2901;42.140;24.760;2023-10-19T05:54:24;99611.84;;;11.12;100.00
5753;BME280;2901;42.140;24.760;2023-10-19T05:56:50;99611.81;;;11.18;100.00
5753;BME280;2901;42.140;24.760;2023-10-19T05:59:17;99612.63;;;11.26;100.00
5753;BME280;2901;42.140;24.760;2023-10-19T06:01:42;99615.13;;;11.35;100.00
5753;BME280;2901;42.140;24.760;2023-10-19T06:04:11;99613.31;;;11.48;100.00
5753;BME280;2901;42.140;24.760;2023-10-19T06:06:38;99622.75;;;11.55;100.00
5753;BME280;2901;42.140;24.760;2023-10-19T06:09:05;99618.34;;;11.63;100.00
5753;BME280;2901;42.140;24.760;2023-10-19T06:11:33;99616.56;;;11.69;100.00
5753;BME280;2901;42.140;24.760;2023-10-19T06:13:59;99616.47;;;11.83;100.00
5753;BME280;2901;42.140;24.760;2023-10-19T06:16:25;99625.06;;;11.88;100.00
5753;BME280;2901;42.140;24.760;2023-10-19T06:18:50;99621.59;;;11.92;100.00
5753;BME280;2901;42.140;24.760;2023-10-19T06:21:18;99625.00;;;11.94;100.00
5753;BME280;2901;42.140;24.760;2023-10-19T06:23:44;99618.06;;;11.96;100.00
5753;BME280;2901;42.140;24.760;2023-10-19T06:26:10;99621.44;;;12.04;100.00
5753;BME280;2901;42.140;24.760;2023-10-19T06:28:40;99620.56;;;12.08;100.00
5753;BME280;2901;42.140;24.760;2023-10-19T06:31:06;99624.88;;;12.08;100.00
5753;BME280;2901;42.140;24.760;2023-10-19T06:33:31;99607.78;;;11.88;100.00
5753;BME280;2901;42.140;24.760;2023-10-19T06:35:58;99629.28;;;12.01;100.00
5753;BME280;2901;42.140;24.760;2023-10-19T06:38:24;99626.59;;;12.07;100.00
5753;BME280;2901;42.140;24.760;2023-10-19T06:40:51;99631.91;;;11.98;100.00
5753;BME280;2901;42.140;24.760;2023-10-19T06:43:17;99625.00;;;11.94;100.00
5753;BME280;2901;42.140;24.760;2023-10-19T06:45:44;99626.63;;;12.06;100.00
5753;BME280;2901;42.140;24.760;2023-10-19T06:48:10;99618.78;;;12.10;100.00
5753;BME280;2901;42.140;24.760;2023-10-19T06:50:36;99625.53;;;12.26;100.00
5753;BME280;2901;42.140;24.760;2023-10-19T06:53:03;99636.63;;;12.39;100.00
5753;BME280;2901;42.140;24.760;2023-10-19T06:55:30;99633.16;;;12.40;100.00
5753;BME280;2901;42.140;24.760;2023-10-19T06:57:56;99625.41;;;12.35;100.00
5753;BME280;2901;42.140;24.760;2023-10-19T07:00:23;99622.03;;;12.29;100.00
5753;BME280;2901;42.140;24.760;2023-10-19T07:02:52;99628.88;;;12.37;100.00
5753;BME280;2901;42.140;24.760;2023-10-19T07:05:18;99619.19;;;12.48;100.00
5753;BME280;2901;42.140;24.760;2023-10-19T07:07:47;99630.25;;;12.66;100.00
5753;BME280;2901;42.140;24.760;2023-10-19T07:10:14;99627.56;;;12.72;100.00
5753;BME280;2901;42.140;24.760;2023-10-19T07:12:44;99625.66;;;12.86;100.00
5753;BME280;2901;42.140;24.760;2023-10-19T07:15:10;99621.91;;;13.07;100.00
5753;BME280;2901;42.140;24.760;2023-10-19T07:17:42;99622.88;;;12.98;99.72
5753;BME280;2901;42.140;24.760;2023-10-19T07:20:09;99620.16;;;13.07;100.00
5753;BME280;2901;42.140;24.760;2023-10-19T07:22:55;99617.50;;;13.13;99.18
5753;BME280;2901;42.140;24.760;2023-10-19T07:25:22;99620.88;;;13.18;99.41
5753;BME280;2901;42.140;24.760;2023-10-19T07:27:49;99621.53;;;13.31;99.97
5753;BME280;2901;42.140;24.760;2023-10-19T07:30:16;99614.38;;;13.46;99.27
5753;BME280;2901;42.140;24.760;2023-10-19T07:32:46;99614.13;;;13.60;98.95
5753;BME280;2901;42.140;24.760;2023-10-19T07:35:11;99612.38;;;13.62;97.53
5753;BME280;2901;42.140;24.760;2023-10-19T07:37:37;99611.97;;;13.85;97.46
5753;BME280;2901;42.140;24.760;2023-10-19T07:40:03;99608.06;;;14.09;96.39
5753;BME280;2901;42.140;24.760;2023-10-19T07:42:30;99610.22;;;14.31;95.80
5753;BME280;2901;42.140;24.760;2023-10-19T07:44:58;99613.31;;;14.51;94.30
5753;BME280;2901;42.140;24.760;2023-10-19T07:47:24;99602.50;;;14.70;94.01
5753;BME280;2901;42.140;24.760;2023-10-19T07:49:50;99604.94;;;14.77;92.72
5753;BME280;2901;42.140;24.760;2023-10-19T07:52:17;99610.81;;;14.87;92.64
5753;BME280;2901;42.140;24.760;2023-10-19T07:54:42;99604.28;;;15.06;91.76
5753;BME280;2901;42.140;24.760;2023-10-19T07:57:08;99598.03;;;15.13;90.63
5753;BME280;2901;42.140;24.760;2023-10-19T07:59:34;99604.69;;;15.26;90.40
5753;BME280;2901;42.140;24.760;2023-10-19T08:02:02;99601.25;;;15.24;89.96
5753;BME280;2901;42.140;24.760;2023-10-19T08:04:29;99598.44;;;15.32;89.75
5753;BME280;2901;42.140;24.760;2023-10-19T08:06:55;99597.78;;;15.61;89.31
5753;BME280;2901;42.140;24.760;2023-10-19T08:09:23;99602.50;;;15.80;87.68
5753;BME280;2901;42.140;24.760;2023-10-19T08:11:50;99601.13;;;15.99;87.07
5753;BME280;2901;42.140;24.760;2023-10-19T08:14:20;99599.91;;;16.11;86.55
5753;BME280;2901;42.140;24.760;2023-10-19T08:16:45;99599.88;;;16.13;86.00
5753;BME280;2901;42.140;24.760;2023-10-19T08:19:11;99590.59;;;16.01;86.22
5753;BME280;2901;42.140;24.760;2023-10-19T08:21:37;99594.50;;;15.86;87.53
5753;BME280;2901;42.140;24.760;2023-10-19T08:24:03;99587.19;;;15.99;87.51
5753;BME280;2901;42.140;24.760;2023-10-19T08:26:30;99590.53;;;16.04;86.43
5753;BME280;2901;42.140;24.760;2023-10-19T08:28:55;99586.53;;;16.23;86.23
5753;BME280;2901;42.140;24.760;2023-10-19T08:31:21;99582.69;;;16.04;87.12
5753;BME280;2901;42.140;24.760;2023-10-19T08:33:46;99580.59;;;15.86;87.72
5753;BME280;2901;42.140;24.760;2023-10-19T08:36:19;99575.53;;;15.80;89.18
5753;BME280;2901;42.140;24.760;2023-10-19T08:38:46;99561.56;;;15.81;88.82
5753;BME280;2901;42.140;24.760;2023-10-19T08:41:13;99580.50;;;15.89;88.74
5753;BME280;2901;42.140;24.760;2023-10-19T08:43:40;99574.47;;;15.87;89.34
5753;BME280;2901;42.140;24.760;2023-10-19T08:46:06;99581.88;;;16.02;88.61
5753;BME280;2901;42.140;24.760;2023-10-19T08:48:35;99574.72;;;16.10;88.06
5753;BME280;2901;42.140;24.760;2023-10-19T08:51:09;99574.06;;;16.33;87.70
5753;BME280;2901;42.140;24.760;2023-10-19T08:53:37;99574.22;;;16.57;86.13
5753;BME280;2901;42.140;24.760;2023-10-19T08:56:07;99575.44;;;16.75;85.95
5753;BME280;2901;42.140;24.760;2023-10-19T08:58:34;99566.78;;;17.01;85.70
5753;BME280;2901;42.140;24.760;2023-10-19T09:00:59;99561.69;;;17.24;84.19
5753;BME280;2901;42.140;24.760;2023-10-19T09:03:31;99563.00;;;17.37;83.65
5753;BME280;2901;42.140;24.760;2023-10-19T09:06:00;99544.56;;;17.40;82.02
5753;BME280;2901;42.140;24.760;2023-10-19T09:08:27;99546.97;;;17.46;81.29
5753;BME280;2901;42.140;24.760;2023-10-19T09:11:06;99544.81;;;17.59;81.11
5753;BME280;2901;42.140;24.760;2023-10-19T09:13:52;99540.41;;;17.86;79.75
5753;BME280;2901;42.140;24.760;2023-10-19T09:16:21;99550.41;;;17.99;78.76
5753;BME280;2901;42.140;24.760;2023-10-19T09:18:48;99540.31;;;18.12;78.02
5753;BME280;2901;42.140;24.760;2023-10-19T09:21:17;99535.31;;;18.06;78.37
5753;BME280;2901;42.140;24.760;2023-10-19T09:23:50;99533.09;;;18.19;78.82
5753;BME280;2901;42.140;24.760;2023-10-19T09:26:16;99516.56;;;18.17;77.76
5753;BME280;2901;42.140;24.760;2023-10-19T09:28:46;99520.78;;;18.21;78.03
5753;BME280;2901;42.140;24.760;2023-10-19T09:31:15;99511.13;;;18.44;76.74
5753;BME280;2901;42.140;24.760;2023-10-19T09:33:42;99505.72;;;18.50;76.14
5753;BME280;2901;42.140;24.760;2023-10-19T09:36:12;99511.94;;;18.46;76.08
5753;BME280;2901;42.140;24.760;2023-10-19T09:38:50;99504.13;;;18.68;75.40
5753;BME280;2901;42.140;24.760;2023-10-19T09:41:20;99515.78;;;19.04;73.58
5753;BME280;2901;42.140;24.760;2023-10-19T09:43:50;99509.31;;;19.33;72.04
5753;BME280;2901;42.140;24.760;2023-10-19T09:46:26;99513.06;;;19.28;71.19
5753;BME280;2901;42.140;24.760;2023-10-19T09:48:51;99502.56;;;19.28;71.55
5753;BME280;2901;42.140;24.760;2023-10-19T09:51:18;99496.84;;;19.18;71.09
5753;BME280;2901;42.140;24.760;2023-10-19T09:53:49;99499.03;;;19.07;71.64
5753;BME280;2901;42.140;24.760;2023-10-19T09:56:20;99493.91;;;19.04;71.24
5753;BME280;2901;42.140;24.760;2023-10-19T09:58:50;99497.22;;;18.87;72.00
5753;BME280;2901;42.140;24.760;2023-10-19T10:01:16;99493.81;;;18.85;71.18
5753;BME280;2901;42.140;24.760;2023-10-19T10:03:48;99486.63;;;18.69;72.26
5753;BME280;2901;42.140;24.760;2023-10-19T10:06:15;99481.75;;;18.59;73.27
5753;BME280;2901;42.140;24.760;2023-10-19T10:08:42;99479.38;;;18.53;73.99
5753;BME280;2901;42.140;24.760;2023-10-19T10:13:42;99475.59;;;18.60;73.63
5753;BME280;2901;42.140;24.760;2023-10-19T10:16:08;99469.00;;;18.50;73.91
5753;BME280;2901;42.140;24.760;2023-10-19T10:18:34;99460.56;;;18.41;73.80
5753;BME280;2901;42.140;24.760;2023-10-19T10:21:21;99463.84;;;18.47;74.27
5753;BME280;2901;42.140;24.760;2023-10-19T10:23:51;99471.06;;;18.41;74.38
5753;BME280;2901;42.140;24.760;2023-10-19T10:26:19;99472.66;;;18.45;74.47
5753;BME280;2901;42.140;24.760;2023-10-19T10:28:50;99476.75;;;18.53;73.79
5753;BME280;2901;42.140;24.760;2023-10-19T10:31:35;99478.63;;;18.72;73.29
5753;BME280;2901;42.140;24.760;2023-10-19T10:34:08;99474.00;;;18.78;73.30
5753;BME280;2901;42.140;24.760;2023-10-19T10:39:46;99463.03;;;19.52;69.35
5753;BME280;2901;42.140;24.760;2023-10-19T10:42:11;99451.97;;;19.64;68.92
5753;BME280;2901;42.140;24.760;2023-10-19T10:44:44;99450.75;;;19.92;68.30
5753;BME280;2901;42.140;24.760;2023-10-19T10:47:20;99437.97;;;20.22;66.98
5753;BME280;2901;42.140;24.760;2023-10-19T10:49:54;99440.25;;;20.29;64.93
5753;BME280;2901;42.140;24.760;2023-10-19T10:54:53;99429.22;;;20.58;62.99
5753;BME280;2901;42.140;24.760;2023-10-19T10:57:19;99428.09;;;20.64;63.69
5753;BME280;2901;42.140;24.760;2023-10-19T10:59:45;99428.22;;;20.78;62.74
5753;BME280;2901;42.140;24.760;2023-10-19T11:02:18;99428.56;;;20.89;61.87
5753;BME280;2901;42.140;24.760;2023-10-19T11:04:44;99420.28;;;20.80;61.65
5753;BME280;2901;42.140;24.760;2023-10-19T11:07:17;99413.94;;;20.84;61.63
5753;BME280;2901;42.140;24.760;2023-10-19T11:09:45;99406.66;;;20.89;62.08
5753;BME280;2901;42.140;24.760;2023-10-19T11:12:14;99406.44;;;20.93;61.66
5753;BME280;2901;42.140;24.760;2023-10-19T11:15:06;99407.84;;;21.00;60.80
5753;BME280;2901;42.140;24.760;2023-10-19T11:17:42;99404.78;;;21.08;60.65
5753;BME280;2901;42.140;24.760;2023-10-19T11:20:08;99393.56;;;21.04;60.62
5753;BME280;2901;42.140;24.760;2023-10-19T11:22:48;99380.28;;;20.90;60.82
5753;BME280;2901;42.140;24.760;2023-10-19T11:25:20;99390.09;;;20.87;61.73
5753;BME280;2901;42.140;24.760;2023-10-19T11:27:46;99372.75;;;20.83;62.03
5753;BME280;2901;42.140;24.760;2023-10-19T11:30:23;99371.34;;;20.93;62.46
5753;BME280;2901;42.140;24.760;2023-10-19T11:32:49;99368.88;;;21.07;61.30
5753;BME280;2901;42.140;24.760;2023-10-19T11:35:18;99357.72;;;21.02;60.91
5753;BME280;2901;42.140;24.760;2023-10-19T11:37:55;99356.47;;;20.92;61.78
5753;BME280;2901;42.140;24.760;2023-10-19T11:40:22;99355.09;;;21.02;61.17
5753;BME280;2901;42.140;24.760;2023-10-19T11:42:49;99349.16;;;21.15;60.97
5753;BME280;2901;42.140;24.760;2023-10-19T11:45:16;99332.84;;;21.25;61.03
5753;BME280;2901;42.140;24.760;2023-10-19T11:47:43;99326.34;;;21.32;61.22
5753;BME280;2901;42.140;24.760;2023-10-19T11:50:08;99331.44;;;21.35;61.74
5753;BME280;2901;42.140;24.760;2023-10-19T11:52:37;99330.47;;;21.20;62.43
5753;BME280;2901;42.140;24.760;2023-10-19T11:55:03;99336.81;;;20.99;62.77
5753;BME280;2901;42.140;24.760;2023-10-19T11:57:30;99328.38;;;20.92;63.16
5753;BME280;2901;42.140;24.760;2023-10-19T11:59:56;99328.75;;;20.85;63.52
5753;BME280;2901;42.140;24.760;2023-10-19T12:02:22;99325.22;;;20.86;62.32
5753;BME280;2901;42.140;24.760;2023-10-19T12:04:47;99329.00;;;20.80;62.57
5753;BME280;2901;42.140;24.760;2023-10-19T12:07:13;99325.06;;;20.71;63.03
5753;BME280;2901;42.140;24.760;2023-10-19T12:09:38;99322.03;;;20.62;63.70
5753;BME280;2901;42.140;24.760;2023-10-19T12:12:07;99320.88;;;20.50;64.69
5753;BME280;2901;42.140;24.760;2023-10-19T12:14:34;99320.09;;;20.31;65.41
5753;BME280;2901;42.140;24.760;2023-10-19T12:17:00;99312.47;;;20.25;64.76
5753;BME280;2901;42.140;24.760;2023-10-19T12:19:29;99314.53;;;20.18;65.25
5753;BME280;2901;42.140;24.760;2023-10-19T12:21:55;99308.38;;;20.01;65.70
5753;BME280;2901;42.140;24.760;2023-10-19T12:24:20;99309.78;;;19.89;65.33
5753;BME280;2901;42.140;24.760;2023-10-19T12:26:46;99311.72;;;19.86;65.31
5753;BME280;2901;42.140;24.760;2023-10-19T12:29:12;99299.44;;;19.67;66.72
5753;BME280;2901;42.140;24.760;2023-10-19T12:31:40;99301.59;;;19.78;66.66
5753;BME280;2901;42.140;24.760;2023-10-19T12:34:08;99294.03;;;19.89;66.44
5753;BME280;2901;42.140;24.760;2023-10-19T12:36:36;99288.66;;;19.74;66.25
5753;BME280;2901;42.140;24.760;2023-10-19T12:39:02;99279.78;;;19.57;67.26
5753;BME280;2901;42.140;24.760;2023-10-19T12:41:30;99283.69;;;19.49;67.73
5753;BME280;2901;42.140;24.760;2023-10-19T12:43:57;99275.69;;;19.52;67.66
5753;BME280;2901;42.140;24.760;2023-10-19T12:46:26;99278.28;;;19.71;67.30
5753;BME280;2901;42.140;24.760;2023-10-19T12:48:55;99269.00;;;19.82;66.75
5753;BME280;2901;42.140;24.760;2023-10-19T12:51:21;99266.78;;;19.92;65.75
5753;BME280;2901;42.140;24.760;2023-10-19T12:53:53;99254.94;;;20.00;65.26
5753;BME280;2901;42.140;24.760;2023-10-19T12:56:22;99256.25;;;19.92;64.97
5753;BME280;2901;42.140;24.760;2023-10-19T12:58:54;99244.09;;;19.89;64.61
5753;BME280;2901;42.140;24.760;2023-10-19T13:01:19;99245.25;;;19.84;65.02
5753;BME280;2901;42.140;24.760;2023-10-19T13:03:47;99247.44;;;19.93;65.23
5753;BME280;2901;42.140;24.760;2023-10-19T13:06:13;99237.88;;;20.09;64.45
5753;BME280;2901;42.140;24.760;2023-10-19T13:08:39;99232.88;;;20.22;63.60
5753;BME280;2901;42.140;24.760;2023-10-19T13:11:08;99237.13;;;20.24;63.78
5753;BME280;2901;42.140;24.760;2023-10-19T13:13:34;99238.72;;;20.28;64.04
5753;BME280;2901;42.140;24.760;2023-10-19T13:16:04;99238.69;;;20.45;63.81
5753;BME280;2901;42.140;24.760;2023-10-19T13:18:31;99230.63;;;20.48;63.65
5753;BME280;2901;42.140;24.760;2023-10-19T13:21:02;99221.84;;;20.49;63.63